createdAt,value
2022-10-08T00:00:51.497Z,9.08
2022-10-08T00:01:51.558Z,9.10
2022-10-08T00:02:51.466Z,9.13
2022-10-08T00:03:51.567Z,9.17
2022-10-08T00:04:51.457Z,9.08
2022-10-08T00:05:51.457Z,9.14
2022-10-08T00:06:51.418Z,9.08
2022-10-08T00:07:53.232Z,9.17
2022-10-08T00:08:51.426Z,9.14
2022-10-08T00:09:51.413Z,9.13
2022-10-08T00:10:51.382Z,9.05
2022-10-08T00:11:51.372Z,9.13
2022-10-08T00:12:51.356Z,9.05
2022-10-08T00:13:51.339Z,9.02
2022-10-08T00:14:51.373Z,9.14
2022-10-08T00:15:51.352Z,9.13
2022-10-08T00:16:51.305Z,9.04
2022-10-08T00:17:51.308Z,9.13
2022-10-08T00:18:51.287Z,9.13
2022-10-08T00:19:51.372Z,9.18
2022-10-08T00:20:51.359Z,9.17
2022-10-08T00:21:51.284Z,9.08
2022-10-08T00:22:51.239Z,9.15
2022-10-08T00:23:51.230Z,9.11
2022-10-08T00:24:51.239Z,9.14
2022-10-08T00:25:51.225Z,9.21
2022-10-08T00:26:51.215Z,9.13
2022-10-08T00:27:51.205Z,9.14
2022-10-08T00:28:51.177Z,9.13
2022-10-08T00:29:51.156Z,9.13
2022-10-08T00:30:51.144Z,9.04
2022-10-08T00:31:51.230Z,9.14
2022-10-08T00:32:51.159Z,9.01
2022-10-08T00:33:51.114Z,9.05
2022-10-08T00:34:51.098Z,9.13
2022-10-08T00:35:51.089Z,9.13
2022-10-08T00:36:51.094Z,9.05
2022-10-08T00:37:51.089Z,9.13
2022-10-08T00:38:51.073Z,9.18
2022-10-08T00:39:51.050Z,9.05
2022-10-08T00:40:51.036Z,9.05
2022-10-08T00:41:51.042Z,9.15
2022-10-08T00:42:51.016Z,9.21
2022-10-08T00:43:51.007Z,9.23
2022-10-08T00:44:51.003Z,9.23
2022-10-08T00:45:51.044Z,9.21
2022-10-08T00:46:51.097Z,9.35
2022-10-08T00:47:50.955Z,9.38
2022-10-08T00:48:50.944Z,9.32
2022-10-08T00:49:50.930Z,9.36
2022-10-08T00:50:50.942Z,9.33
2022-10-08T00:51:50.913Z,9.38
2022-10-08T00:52:59.693Z,9.39
2022-10-08T00:53:50.885Z,9.38
2022-10-08T00:54:50.874Z,9.42
2022-10-08T00:55:50.889Z,9.33
2022-10-08T00:56:50.867Z,9.46
2022-10-08T00:57:50.863Z,9.48
2022-10-08T00:58:50.827Z,9.56
2022-10-08T00:59:50.825Z,9.60
2022-10-08T01:00:51.023Z,9.58
2022-10-08T01:01:50.848Z,9.58
2022-10-08T01:02:50.802Z,9.58
2022-10-08T01:03:50.842Z,9.64
2022-10-08T01:04:50.757Z,9.65
2022-10-08T01:05:50.771Z,9.60
2022-10-08T01:06:50.738Z,9.71
2022-10-08T01:07:50.740Z,9.65
2022-10-08T01:08:50.724Z,9.79
2022-10-08T01:09:50.721Z,9.79
2022-10-08T01:10:50.693Z,9.83
2022-10-08T01:11:50.737Z,9.83
2022-10-08T01:12:50.672Z,9.90
2022-10-08T01:13:50.692Z,9.86
2022-10-08T01:14:50.645Z,9.86
2022-10-08T01:15:50.638Z,9.84
2022-10-08T01:16:50.640Z,9.99
2022-10-08T01:17:50.624Z,10.04
2022-10-08T01:18:50.620Z,10.09
2022-10-08T01:19:50.604Z,10.23
2022-10-08T01:20:50.600Z,10.25
2022-10-08T01:21:50.566Z,10.17
2022-10-08T01:22:50.555Z,10.23
2022-10-08T01:23:50.591Z,10.29
2022-10-08T01:24:50.558Z,10.25
2022-10-08T01:25:50.516Z,10.25
2022-10-08T01:26:50.524Z,10.18
2022-10-08T01:27:50.493Z,10.23
2022-10-08T01:28:50.506Z,10.25
2022-10-08T01:29:50.478Z,10.17
2022-10-08T01:30:50.458Z,10.18
2022-10-08T01:31:50.524Z,10.17
2022-10-08T01:32:50.456Z,10.15
2022-10-08T01:33:58.111Z,10.14
2022-10-08T01:34:50.421Z,10.09
2022-10-08T01:35:50.406Z,10.11
2022-10-08T01:36:50.404Z,10.08
2022-10-08T01:37:50.396Z,10.17
2022-10-08T01:38:50.392Z,10.04
2022-10-08T01:39:50.374Z,10.07
2022-10-08T01:40:50.477Z,10.07
2022-10-08T01:41:50.396Z,10.08
2022-10-08T01:42:50.325Z,10.08
2022-10-08T01:43:50.332Z,10.07
2022-10-08T01:44:50.334Z,10.01
2022-10-08T01:45:50.323Z,9.99
2022-10-08T01:46:50.279Z,9.97
2022-10-08T01:47:50.287Z,9.93
2022-10-08T01:48:51.565Z,9.96
2022-10-08T01:49:50.250Z,10.01
2022-10-08T01:50:50.242Z,10.01
2022-10-08T01:51:50.221Z,9.99
2022-10-08T01:52:50.424Z,9.94
2022-10-08T01:53:50.197Z,9.99
2022-10-08T01:54:50.209Z,10.01
2022-10-08T01:55:50.183Z,9.96
2022-10-08T01:56:50.183Z,9.99
2022-10-08T01:57:50.152Z,9.97
2022-10-08T01:58:50.183Z,9.99
2022-10-08T01:59:50.152Z,9.91
2022-10-08T02:00:50.218Z,9.99
2022-10-08T02:01:50.157Z,10.01
2022-10-08T02:02:50.103Z,9.99
2022-10-08T02:03:50.104Z,9.99
2022-10-08T02:04:50.086Z,10.04
2022-10-08T02:05:50.060Z,10.02
2022-10-08T02:06:50.053Z,10.04
2022-10-08T02:07:50.040Z,10.04
2022-10-08T02:08:50.034Z,9.99
2022-10-08T02:09:50.031Z,10.01
2022-10-08T02:10:50.004Z,10.09
2022-10-08T02:11:49.991Z,10.08
2022-10-08T02:12:50.308Z,10.02
2022-10-08T02:13:49.970Z,10.04
2022-10-08T02:14:49.989Z,10.01
2022-10-08T02:15:49.953Z,10.01
2022-10-08T02:16:50.027Z,10.01
2022-10-08T02:17:49.931Z,10.08
2022-10-08T02:18:49.933Z,9.99
2022-10-08T02:19:49.940Z,10.08
2022-10-08T02:20:49.898Z,9.96
2022-10-08T02:21:49.878Z,9.99
2022-10-08T02:22:49.966Z,10.04
2022-10-08T02:23:49.857Z,10.02
2022-10-08T02:24:49.859Z,10.07
2022-10-08T02:25:49.833Z,10.01
2022-10-08T02:26:49.826Z,10.04
2022-10-08T02:27:49.811Z,10.01
2022-10-08T02:28:58.093Z,9.99
2022-10-08T02:29:49.808Z,10.09
2022-10-08T02:30:49.781Z,10.08
2022-10-08T02:31:49.903Z,10.15
2022-10-08T02:32:49.777Z,10.04
2022-10-08T02:33:49.771Z,10.08
2022-10-08T02:34:49.742Z,10.09
2022-10-08T02:35:49.730Z,10.07
2022-10-08T02:36:49.746Z,10.11
2022-10-08T02:37:49.704Z,10.17
2022-10-08T02:38:49.730Z,10.04
2022-10-08T02:39:49.677Z,10.12
2022-10-08T02:40:49.668Z,10.02
2022-10-08T02:41:49.654Z,10.05
2022-10-08T02:42:49.978Z,10.17
2022-10-08T02:43:49.630Z,10.11
2022-10-08T02:44:49.629Z,10.15
2022-10-08T02:45:49.679Z,10.17
2022-10-08T02:46:49.621Z,10.14
2022-10-08T02:47:49.584Z,10.18
2022-10-08T02:48:49.574Z,10.25
2022-10-08T02:49:49.563Z,10.29
2022-10-08T02:50:49.561Z,10.27
2022-10-08T02:51:49.537Z,10.34
2022-10-08T02:52:49.962Z,10.36
2022-10-08T02:53:49.519Z,10.32
2022-10-08T02:54:49.503Z,10.29
2022-10-08T02:55:49.518Z,10.33
2022-10-08T02:56:49.485Z,10.40
2022-10-08T02:57:49.509Z,10.34
2022-10-08T02:58:49.463Z,10.41
2022-10-08T02:59:49.453Z,10.41
2022-10-08T03:00:49.488Z,10.44
2022-10-08T03:01:49.443Z,10.42
2022-10-08T03:02:50.089Z,10.41
2022-10-08T03:03:49.410Z,10.51
2022-10-08T03:04:49.382Z,10.53
2022-10-08T03:05:49.426Z,10.52
2022-10-08T03:06:49.393Z,10.48
2022-10-08T03:07:49.357Z,10.52
2022-10-08T03:08:49.348Z,10.55
2022-10-08T03:09:49.347Z,10.45
2022-10-08T03:10:49.317Z,10.47
2022-10-08T03:11:49.345Z,10.44
2022-10-08T03:12:49.795Z,10.47
2022-10-08T03:13:49.308Z,10.42
2022-10-08T03:14:49.283Z,10.44
2022-10-08T03:15:49.264Z,10.44
2022-10-08T03:16:49.333Z,10.41
2022-10-08T03:17:49.262Z,10.38
2022-10-08T03:18:49.243Z,10.44
2022-10-08T03:19:49.213Z,10.44
2022-10-08T03:20:49.206Z,10.45
2022-10-08T03:21:49.205Z,10.42
2022-10-08T03:22:49.586Z,10.47
2022-10-08T03:23:49.174Z,10.38
2022-10-08T03:24:50.377Z,10.42
2022-10-08T03:25:49.181Z,10.42
2022-10-08T03:26:49.148Z,10.47
2022-10-08T03:27:49.123Z,10.47
2022-10-08T03:28:49.134Z,10.42
2022-10-08T03:29:49.313Z,10.40
2022-10-08T03:30:49.156Z,10.40
2022-10-08T03:31:49.087Z,10.47
2022-10-08T03:32:49.623Z,10.40
2022-10-08T03:33:51.251Z,10.42
2022-10-08T03:34:49.043Z,10.44
2022-10-08T03:35:49.034Z,10.30
2022-10-08T03:36:49.036Z,10.30
2022-10-08T03:37:49.010Z,10.27
2022-10-08T03:38:49.019Z,10.38
2022-10-08T03:39:48.999Z,10.34
2022-10-08T03:40:48.999Z,10.41
2022-10-08T03:41:48.963Z,10.27
2022-10-08T03:42:49.425Z,10.44
2022-10-08T03:43:49.004Z,10.40
2022-10-08T03:44:48.931Z,10.30
2022-10-08T03:45:49.030Z,10.34
2022-10-08T03:46:48.918Z,10.38
2022-10-08T03:47:48.893Z,10.32
2022-10-08T03:48:48.894Z,10.42
2022-10-08T03:49:48.881Z,10.27
2022-10-08T03:50:48.870Z,10.33
2022-10-08T03:51:48.871Z,10.41
2022-10-08T03:52:49.333Z,10.30
2022-10-08T03:53:48.823Z,10.36
2022-10-08T03:54:48.820Z,10.34
2022-10-08T03:55:48.817Z,10.34
2022-10-08T03:56:48.807Z,10.38
2022-10-08T03:57:48.809Z,10.36
2022-10-08T03:58:48.824Z,10.30
2022-10-08T03:59:48.758Z,10.30
2022-10-08T04:00:48.764Z,10.23
2022-10-08T04:01:48.811Z,10.26
2022-10-08T04:02:49.105Z,10.27
2022-10-08T04:03:48.728Z,10.25
2022-10-08T04:04:48.729Z,10.22
2022-10-08T04:05:48.687Z,10.22
2022-10-08T04:06:48.709Z,10.26
2022-10-08T04:07:48.678Z,10.20
2022-10-08T04:08:48.677Z,10.23
2022-10-08T04:09:48.672Z,10.25
2022-10-08T04:10:48.633Z,10.25
2022-10-08T04:11:48.628Z,10.25
2022-10-08T04:12:49.041Z,10.20
2022-10-08T04:13:48.728Z,10.25
2022-10-08T04:14:48.587Z,10.22
2022-10-08T04:15:48.631Z,10.20
2022-10-08T04:16:48.583Z,10.23
2022-10-08T04:17:48.578Z,10.26
2022-10-08T04:18:48.541Z,10.27
2022-10-08T04:19:48.528Z,10.20
2022-10-08T04:20:48.541Z,10.23
2022-10-08T04:21:48.523Z,10.20
2022-10-08T04:22:49.003Z,10.14
2022-10-08T04:23:48.480Z,10.14
2022-10-08T04:24:48.484Z,10.18
2022-10-08T04:25:48.488Z,10.17
2022-10-08T04:26:48.449Z,10.14
2022-10-08T04:27:48.449Z,10.09
2022-10-08T04:28:48.533Z,10.15
2022-10-08T04:29:48.415Z,10.17
2022-10-08T04:30:48.479Z,10.14
2022-10-08T04:31:48.463Z,10.07
2022-10-08T04:32:48.859Z,10.12
2022-10-08T04:33:48.455Z,10.12
2022-10-08T04:34:48.362Z,10.05
2022-10-08T04:35:48.356Z,10.12
2022-10-08T04:36:48.368Z,10.14
2022-10-08T04:37:48.324Z,10.17
2022-10-08T04:38:48.336Z,10.12
2022-10-08T04:39:48.309Z,10.12
2022-10-08T04:40:48.289Z,10.07
2022-10-08T04:41:48.272Z,10.18
2022-10-08T04:42:48.733Z,10.15
2022-10-08T04:43:48.279Z,10.20
2022-10-08T04:44:48.267Z,10.18
2022-10-08T04:45:48.233Z,10.20
2022-10-08T04:46:48.348Z,10.18
2022-10-08T04:47:48.210Z,10.22
2022-10-08T04:48:48.195Z,10.23
2022-10-08T04:49:48.183Z,10.23
2022-10-08T04:50:48.205Z,10.29
2022-10-08T04:51:48.163Z,10.32
2022-10-08T04:52:48.617Z,10.33
2022-10-08T04:53:48.155Z,10.33
2022-10-08T04:54:48.155Z,10.27
2022-10-08T04:55:48.127Z,10.40
2022-10-08T04:56:48.137Z,10.40
2022-10-08T04:57:48.092Z,10.48
2022-10-08T04:58:48.085Z,10.52
2022-10-08T05:00:13.186Z,10.59
2022-10-08T05:00:49.087Z,10.60
2022-10-08T05:01:48.183Z,10.60
2022-10-08T05:02:48.359Z,10.51
2022-10-08T05:03:48.024Z,10.60
2022-10-08T05:04:48.030Z,10.56
2022-10-08T05:05:48.098Z,10.56
2022-10-08T05:06:48.002Z,10.68
2022-10-08T05:07:47.978Z,10.61
2022-10-08T05:08:47.982Z,10.67
2022-10-08T05:09:47.968Z,10.68
2022-10-08T05:10:47.993Z,10.70
2022-10-08T05:11:47.929Z,10.68
2022-10-08T05:12:48.430Z,10.74
2022-10-08T05:13:47.934Z,10.73
2022-10-08T05:14:48.806Z,10.84
2022-10-08T05:15:47.922Z,10.85
2022-10-08T05:16:47.905Z,10.88
2022-10-08T05:17:47.868Z,10.96
2022-10-08T05:18:47.855Z,10.97
2022-10-08T05:19:47.861Z,10.99
2022-10-08T05:20:47.830Z,10.97
2022-10-08T05:21:47.837Z,11.03
2022-10-08T05:22:48.221Z,11.04
2022-10-08T05:23:47.801Z,11.14
2022-10-08T05:24:47.817Z,11.25
2022-10-08T05:25:47.783Z,11.24
2022-10-08T05:27:03.192Z,11.33
2022-10-08T05:27:48.746Z,11.37
2022-10-08T05:28:47.857Z,11.42
2022-10-08T05:29:47.753Z,11.44
2022-10-08T05:30:47.782Z,11.40
2022-10-08T05:31:47.708Z,11.54
2022-10-08T05:32:47.955Z,11.52
2022-10-08T05:33:47.703Z,11.60
2022-10-08T05:34:47.677Z,11.51
2022-10-08T05:35:47.665Z,11.70
2022-10-08T05:36:47.646Z,11.72
2022-10-08T05:37:47.634Z,11.70
2022-10-08T05:38:47.640Z,11.72
2022-10-08T05:39:47.607Z,11.73
2022-10-08T05:40:47.633Z,11.75
2022-10-08T05:41:47.592Z,11.76
2022-10-08T05:42:47.924Z,11.78
2022-10-08T05:43:47.569Z,11.79
2022-10-08T05:44:47.559Z,11.83
2022-10-08T05:45:47.571Z,11.83
2022-10-08T05:46:47.577Z,11.94
2022-10-08T05:47:47.538Z,11.90
2022-10-08T05:48:47.514Z,11.95
2022-10-08T05:49:47.497Z,11.99
2022-10-08T05:50:47.511Z,12.01
2022-10-08T05:51:47.497Z,11.96
2022-10-08T05:52:47.724Z,12.04
2022-10-08T05:53:47.449Z,12.04
2022-10-08T05:54:47.469Z,12.12
2022-10-08T05:55:47.639Z,12.09
2022-10-08T05:56:47.578Z,12.12
2022-10-08T05:57:47.411Z,12.10
2022-10-08T05:58:47.415Z,12.12
2022-10-08T05:59:47.392Z,12.23
2022-10-08T06:00:47.374Z,12.19
2022-10-08T06:01:47.372Z,12.27
2022-10-08T06:02:47.632Z,12.32
2022-10-08T06:03:47.331Z,12.32
2022-10-08T06:04:47.403Z,12.28
2022-10-08T06:05:47.494Z,12.37
2022-10-08T06:06:47.317Z,12.27
2022-10-08T06:07:47.300Z,12.42
2022-10-08T06:08:47.298Z,12.49
2022-10-08T06:09:47.286Z,12.38
2022-10-08T06:10:47.260Z,12.41
2022-10-08T06:11:47.268Z,12.39
2022-10-08T06:12:47.607Z,12.42
2022-10-08T06:13:47.234Z,12.45
2022-10-08T06:14:47.208Z,12.49
2022-10-08T06:15:47.267Z,12.41
2022-10-08T06:16:47.217Z,12.39
2022-10-08T06:17:47.188Z,12.46
2022-10-08T06:18:47.175Z,12.41
2022-10-08T06:19:47.168Z,12.52
2022-10-08T06:20:47.144Z,12.50
2022-10-08T06:21:47.132Z,12.54
2022-10-08T06:22:47.583Z,12.41
2022-10-08T06:23:47.112Z,12.46
2022-10-08T06:24:47.095Z,12.57
2022-10-08T06:25:47.100Z,12.53
2022-10-08T06:26:47.130Z,12.53
2022-10-08T06:27:47.072Z,12.49
2022-10-08T06:28:47.120Z,12.49
2022-10-08T06:29:47.033Z,12.53
2022-10-08T06:30:47.025Z,12.57
2022-10-08T06:31:47.166Z,12.57
2022-10-08T06:32:47.216Z,12.60
2022-10-08T06:33:47.016Z,12.59
2022-10-08T06:34:46.976Z,12.57
2022-10-08T06:35:46.988Z,12.59
2022-10-08T06:36:46.960Z,12.62
2022-10-08T06:37:46.957Z,12.62
2022-10-08T06:38:46.941Z,12.64
2022-10-08T06:39:48.534Z,12.62
2022-10-08T06:40:46.925Z,12.65
2022-10-08T06:41:46.903Z,12.62
2022-10-08T06:42:47.093Z,12.72
2022-10-08T06:43:46.873Z,12.74
2022-10-08T06:44:46.891Z,12.71
2022-10-08T06:45:46.875Z,12.70
2022-10-08T06:46:46.896Z,12.72
2022-10-08T06:47:46.843Z,12.82
2022-10-08T06:48:46.832Z,12.75
2022-10-08T06:49:46.800Z,12.75
2022-10-08T06:50:46.798Z,12.83
2022-10-08T06:51:46.870Z,12.68
2022-10-08T06:52:47.011Z,12.70
2022-10-08T06:53:46.773Z,12.83
2022-10-08T06:54:46.745Z,12.85
2022-10-08T06:55:49.420Z,12.79
2022-10-08T06:56:46.738Z,12.82
2022-10-08T06:57:46.720Z,12.78
2022-10-08T06:58:46.720Z,12.83
2022-10-08T06:59:46.689Z,12.83
2022-10-08T07:00:46.816Z,12.82
2022-10-08T07:01:46.773Z,12.85
2022-10-08T07:02:46.850Z,12.86
2022-10-08T07:03:46.669Z,12.87
2022-10-08T07:04:46.633Z,12.90
2022-10-08T07:05:46.644Z,12.96
2022-10-08T07:06:46.630Z,12.83
2022-10-08T07:07:46.592Z,12.89
2022-10-08T07:08:46.583Z,13.01
2022-10-08T07:09:46.571Z,13.03
2022-10-08T07:10:46.587Z,13.07
2022-10-08T07:11:46.553Z,12.96
2022-10-08T07:12:46.910Z,13.12
2022-10-08T07:13:46.527Z,13.17
2022-10-08T07:14:46.523Z,13.05
2022-10-08T07:15:46.505Z,13.11
2022-10-08T07:16:46.610Z,13.14
2022-10-08T07:17:46.480Z,13.23
2022-10-08T07:18:46.499Z,13.19
2022-10-08T07:19:46.475Z,13.25
2022-10-08T07:20:46.448Z,13.22
2022-10-08T07:21:46.436Z,13.26
2022-10-08T07:22:46.660Z,13.28
2022-10-08T07:23:46.426Z,13.23
2022-10-08T07:24:46.424Z,13.26
2022-10-08T07:25:46.415Z,13.20
2022-10-08T07:26:46.409Z,13.28
2022-10-08T07:27:46.369Z,13.30
2022-10-08T07:28:46.482Z,13.33
2022-10-08T07:29:46.350Z,13.42
2022-10-08T07:30:46.342Z,13.41
2022-10-08T07:31:46.358Z,13.59
2022-10-08T07:32:46.657Z,13.55
2022-10-08T07:33:46.322Z,13.59
2022-10-08T07:34:46.288Z,13.57
2022-10-08T07:35:46.293Z,13.57
2022-10-08T07:36:46.272Z,13.67
2022-10-08T07:37:46.272Z,13.78
2022-10-08T07:38:46.247Z,13.78
2022-10-08T07:39:46.292Z,13.77
2022-10-08T07:40:46.217Z,13.87
2022-10-08T07:41:46.208Z,13.87
2022-10-08T07:42:46.463Z,13.87
2022-10-08T07:43:46.201Z,13.88
2022-10-08T07:44:46.173Z,13.78
2022-10-08T07:45:46.226Z,13.84
2022-10-08T07:46:46.153Z,13.79
2022-10-08T07:47:46.188Z,13.91
2022-10-08T07:48:46.291Z,13.82
2022-10-08T07:49:46.270Z,13.79
2022-10-08T07:50:46.201Z,13.82
2022-10-08T07:51:46.134Z,13.84
2022-10-08T07:52:46.466Z,13.87
2022-10-08T07:53:46.124Z,13.79
2022-10-08T07:54:46.112Z,13.87
2022-10-08T07:55:46.913Z,13.81
2022-10-08T07:56:46.060Z,13.87
2022-10-08T07:57:46.032Z,13.79
2022-10-08T07:58:46.112Z,13.78
2022-10-08T07:59:46.011Z,13.77
2022-10-08T08:00:46.083Z,13.81
2022-10-08T08:01:46.030Z,13.78
2022-10-08T08:02:46.286Z,13.69
2022-10-08T08:03:45.969Z,13.81
2022-10-08T08:04:46.667Z,13.85
2022-10-08T08:05:45.941Z,13.84
2022-10-08T08:06:45.955Z,13.79
2022-10-08T08:07:49.667Z,13.84
2022-10-08T08:08:46.974Z,13.84
2022-10-08T08:09:45.919Z,13.85
2022-10-08T08:10:45.885Z,13.82
2022-10-08T08:11:45.891Z,13.82
2022-10-08T08:12:46.235Z,13.85
2022-10-08T08:13:45.852Z,13.89
2022-10-08T08:14:45.870Z,13.91
2022-10-08T08:15:45.833Z,13.96
2022-10-08T08:16:46.095Z,13.99
2022-10-08T08:17:45.808Z,14.07
2022-10-08T08:18:45.817Z,14.03
2022-10-08T08:19:45.824Z,13.97
2022-10-08T08:20:45.807Z,14.09
2022-10-08T08:21:45.776Z,14.04
2022-10-08T08:22:46.138Z,14.07
2022-10-08T08:23:45.758Z,14.07
2022-10-08T08:24:45.734Z,14.10
2022-10-08T08:25:45.714Z,14.03
2022-10-08T08:26:45.707Z,14.02
2022-10-08T08:27:45.696Z,13.99
2022-10-08T08:28:52.866Z,14.03
2022-10-08T08:29:45.672Z,14.09
2022-10-08T08:30:45.663Z,14.12
2022-10-08T08:31:45.730Z,14.21
2022-10-08T08:32:48.801Z,14.25
2022-10-08T08:33:45.632Z,14.24
2022-10-08T08:34:45.640Z,14.24
2022-10-08T08:35:45.622Z,14.24
2022-10-08T08:36:45.643Z,14.21
2022-10-08T08:37:45.592Z,14.21
2022-10-08T08:38:45.743Z,14.22
2022-10-08T08:39:45.614Z,14.17
2022-10-08T08:40:45.559Z,14.07
2022-10-08T08:41:45.539Z,14.15
2022-10-08T08:42:45.923Z,14.09
2022-10-08T08:43:45.518Z,14.20
2022-10-08T08:44:45.537Z,14.17
2022-10-08T08:45:47.242Z,14.15
2022-10-08T08:46:45.503Z,14.24
2022-10-08T08:47:45.477Z,14.25
2022-10-08T08:48:45.462Z,14.04
2022-10-08T08:49:45.471Z,14.12
2022-10-08T08:50:48.590Z,14.15
2022-10-08T08:51:45.425Z,14.17
2022-10-08T08:52:45.855Z,14.24
2022-10-08T08:53:45.403Z,14.28
2022-10-08T08:54:45.415Z,14.29
2022-10-08T08:55:45.403Z,14.40
2022-10-08T08:56:45.372Z,14.37
2022-10-08T08:57:45.383Z,14.43
2022-10-08T08:58:45.356Z,14.52
2022-10-08T08:59:45.338Z,14.64
2022-10-08T09:00:45.397Z,14.75
2022-10-08T09:01:45.326Z,14.86
2022-10-08T09:02:45.711Z,15.03
2022-10-08T09:03:45.293Z,15.06
2022-10-08T09:04:45.624Z,15.11
2022-10-08T09:05:45.336Z,15.21
2022-10-08T09:06:45.262Z,15.25
2022-10-08T09:07:45.282Z,15.28
2022-10-08T09:08:45.272Z,15.31
2022-10-08T09:09:45.229Z,15.27
2022-10-08T09:10:45.218Z,15.29
2022-10-08T09:11:45.204Z,15.34
2022-10-08T09:12:45.734Z,15.32
2022-10-08T09:13:45.187Z,15.27
2022-10-08T09:14:45.192Z,15.32
2022-10-08T09:15:45.190Z,15.21
2022-10-08T09:16:45.231Z,15.11
2022-10-08T09:17:45.150Z,15.17
2022-10-08T09:18:45.122Z,15.14
2022-10-08T09:19:45.126Z,15.13
2022-10-08T09:20:45.116Z,15.14
2022-10-08T09:21:45.123Z,15.14
2022-10-08T09:22:45.463Z,15.10
2022-10-08T09:23:45.698Z,15.01
2022-10-08T09:24:45.071Z,15.03
2022-10-08T09:25:45.048Z,15.03
2022-10-08T09:26:45.031Z,15.11
2022-10-08T09:27:45.023Z,15.07
2022-10-08T09:28:45.113Z,15.03
2022-10-08T09:29:45.006Z,15.10
2022-10-08T09:30:45.252Z,14.96
2022-10-08T09:31:45.004Z,15.07
2022-10-08T09:32:45.347Z,14.99
2022-10-08T09:33:44.972Z,14.98
2022-10-08T09:34:44.935Z,14.96
2022-10-08T09:35:44.953Z,15.07
2022-10-08T09:36:44.928Z,14.91
2022-10-08T09:37:44.907Z,14.92
2022-10-08T09:38:44.893Z,14.78
2022-10-08T09:39:44.879Z,14.64
2022-10-08T09:40:44.907Z,14.65
2022-10-08T09:41:44.857Z,14.61
2022-10-08T09:42:45.030Z,14.62
2022-10-08T09:43:44.855Z,14.57
2022-10-08T09:44:44.817Z,14.55
2022-10-08T09:45:44.885Z,14.57
2022-10-08T09:46:44.795Z,14.61
2022-10-08T09:47:44.796Z,14.51
2022-10-08T09:48:44.807Z,14.61
2022-10-08T09:49:44.760Z,14.61
2022-10-08T09:50:44.752Z,14.64
2022-10-08T09:51:44.738Z,14.65
2022-10-08T09:52:45.034Z,14.65
2022-10-08T09:53:44.739Z,14.77
2022-10-08T09:54:44.711Z,14.80
2022-10-08T09:55:44.693Z,14.73
2022-10-08T09:56:44.708Z,14.77
2022-10-08T09:57:44.685Z,14.77
2022-10-08T09:58:44.673Z,14.91
2022-10-08T09:59:44.651Z,14.98
2022-10-08T10:00:44.631Z,14.94
2022-10-08T10:01:44.676Z,15.02
2022-10-08T10:02:44.993Z,14.99
2022-10-08T10:03:44.679Z,15.11
2022-10-08T10:04:44.587Z,15.11
2022-10-08T10:05:44.581Z,15.07
2022-10-08T10:06:44.584Z,15.20
2022-10-08T10:07:44.549Z,15.28
2022-10-08T10:08:44.555Z,15.27
2022-10-08T10:09:46.410Z,15.25
2022-10-08T10:10:44.513Z,15.19
2022-10-08T10:11:44.521Z,15.11
2022-10-08T10:12:45.021Z,15.10
2022-10-08T10:13:44.473Z,14.92
2022-10-08T10:14:44.483Z,15.02
2022-10-08T10:15:44.456Z,15.02
2022-10-08T10:16:44.525Z,14.98
2022-10-08T10:17:44.442Z,15.10
2022-10-08T10:18:44.418Z,15.10
2022-10-08T10:19:44.426Z,15.13
2022-10-08T10:20:44.396Z,15.11
2022-10-08T10:21:44.385Z,15.19
2022-10-08T10:22:44.607Z,15.29
2022-10-08T10:23:44.374Z,15.32
2022-10-08T10:24:44.382Z,15.36
2022-10-08T10:25:44.344Z,15.28
2022-10-08T10:26:44.349Z,15.34
2022-10-08T10:27:44.319Z,15.50
2022-10-08T10:28:44.440Z,15.44
2022-10-08T10:29:44.325Z,15.41
2022-10-08T10:30:44.377Z,15.46
2022-10-08T10:31:44.274Z,15.31
2022-10-08T10:32:44.323Z,15.21
2022-10-08T10:33:44.271Z,15.28
2022-10-08T10:34:44.258Z,15.35
2022-10-08T10:35:44.242Z,15.25
2022-10-08T10:36:44.234Z,15.20
2022-10-08T10:37:44.208Z,15.20
2022-10-08T10:38:44.193Z,15.19
2022-10-08T10:39:44.185Z,15.14
2022-10-08T10:40:44.169Z,15.11
2022-10-08T10:41:44.186Z,15.14
2022-10-08T10:42:44.147Z,15.09
2022-10-08T10:43:44.156Z,15.09
2022-10-08T10:44:44.143Z,15.17
2022-10-08T10:45:44.160Z,15.16
2022-10-08T10:46:44.342Z,15.13
2022-10-08T10:47:44.104Z,14.99
2022-10-08T10:48:44.124Z,14.96
2022-10-08T10:49:44.066Z,14.94
2022-10-08T10:50:44.073Z,14.91
2022-10-08T10:51:44.057Z,14.86
2022-10-08T10:52:44.035Z,14.94
2022-10-08T10:53:44.031Z,14.89
2022-10-08T10:54:44.008Z,14.96
2022-10-08T10:55:44.001Z,14.94
2022-10-08T10:56:44.008Z,14.89
2022-10-08T10:57:43.983Z,14.89
2022-10-08T10:58:43.958Z,14.91
2022-10-08T10:59:43.961Z,14.94
2022-10-08T11:00:44.344Z,14.88
2022-10-08T11:01:44.025Z,14.98
2022-10-08T11:02:44.015Z,14.98
2022-10-08T11:03:43.908Z,14.98
2022-10-08T11:04:43.966Z,14.99
2022-10-08T11:05:43.888Z,15.07
2022-10-08T11:06:43.863Z,15.11
2022-10-08T11:07:43.896Z,15.19
2022-10-08T11:08:45.036Z,15.20
2022-10-08T11:09:44.003Z,15.27
2022-10-08T11:10:43.995Z,15.32
2022-10-08T11:11:43.817Z,15.38
2022-10-08T11:12:43.814Z,15.47
2022-10-08T11:13:43.800Z,15.60
2022-10-08T11:14:43.789Z,15.54
2022-10-08T11:15:43.810Z,15.78
2022-10-08T11:16:43.782Z,15.93
2022-10-08T11:17:43.733Z,16.09
2022-10-08T11:18:43.723Z,16.11
2022-10-08T11:19:43.712Z,16.17
2022-10-08T11:20:43.718Z,16.25
2022-10-08T11:21:43.697Z,16.33
2022-10-08T11:22:43.692Z,16.46
2022-10-08T11:23:43.676Z,16.57
2022-10-08T11:24:43.670Z,16.58
2022-10-08T11:26:10.804Z,16.57
2022-10-08T11:26:44.627Z,16.46
2022-10-08T11:27:43.639Z,16.52
2022-10-08T11:28:43.759Z,16.34
2022-10-08T11:29:43.598Z,16.27
2022-10-08T11:30:43.647Z,16.21
2022-10-08T11:31:43.571Z,16.17
2022-10-08T11:32:43.575Z,16.24
2022-10-08T11:33:43.571Z,16.08
2022-10-08T11:34:43.538Z,16.27
2022-10-08T11:35:43.538Z,16.25
2022-10-08T11:36:43.523Z,16.17
2022-10-08T11:37:43.505Z,16.08
2022-10-08T11:38:43.516Z,16.11
2022-10-08T11:39:43.501Z,16.01
2022-10-08T11:40:43.475Z,16.00
2022-10-08T11:41:43.459Z,15.87
2022-10-08T11:42:48.072Z,15.82
2022-10-08T11:43:44.438Z,15.57
2022-10-08T11:44:43.442Z,15.64
2022-10-08T11:45:43.414Z,15.54
2022-10-08T11:46:46.373Z,15.50
2022-10-08T11:47:43.414Z,15.54
2022-10-08T11:48:43.405Z,15.57
2022-10-08T11:49:43.389Z,15.67
2022-10-08T11:50:43.371Z,15.65
2022-10-08T11:51:43.346Z,15.68
2022-10-08T11:52:43.352Z,15.82
2022-10-08T11:53:43.325Z,15.72
2022-10-08T11:54:43.310Z,15.78
2022-10-08T11:55:43.298Z,15.78
2022-10-08T11:56:43.299Z,15.78
2022-10-08T11:58:06.766Z,15.90
2022-10-08T11:58:44.291Z,15.90
2022-10-08T11:59:43.264Z,15.80
2022-10-08T12:00:43.241Z,15.80
2022-10-08T12:01:43.229Z,15.80
2022-10-08T12:02:43.370Z,15.69
2022-10-08T12:03:43.314Z,15.68
2022-10-08T12:04:43.210Z,15.71
2022-10-08T12:05:46.643Z,15.65
2022-10-08T12:06:44.170Z,15.60
2022-10-08T12:07:43.159Z,15.67
2022-10-08T12:08:43.183Z,15.53
2022-10-08T12:09:43.140Z,15.47
2022-10-08T12:10:43.130Z,15.29
2022-10-08T12:11:43.135Z,15.25
2022-10-08T12:12:43.130Z,15.17
2022-10-08T12:13:43.095Z,15.32
2022-10-08T12:14:43.093Z,15.31
2022-10-08T12:15:43.117Z,15.34
2022-10-08T12:16:43.058Z,15.38
2022-10-08T12:17:43.050Z,15.41
2022-10-08T12:18:43.057Z,15.38
2022-10-08T12:19:43.028Z,15.44
2022-10-08T12:20:43.067Z,15.41
2022-10-08T12:21:43.004Z,15.41
2022-10-08T12:22:43.002Z,15.47
2022-10-08T12:23:42.997Z,15.47
2022-10-08T12:24:47.320Z,15.36
2022-10-08T12:25:43.959Z,15.25
2022-10-08T12:26:42.959Z,15.32
2022-10-08T12:27:42.932Z,15.34
2022-10-08T12:28:43.025Z,15.35
2022-10-08T12:29:42.931Z,15.44
2022-10-08T12:30:42.915Z,15.51
2022-10-08T12:31:47.569Z,15.69
2022-10-08T12:32:43.942Z,15.80
2022-10-08T12:33:42.867Z,15.80
2022-10-08T12:34:42.856Z,15.92
2022-10-08T12:35:42.864Z,15.89
2022-10-08T12:36:42.867Z,15.87
2022-10-08T12:37:42.829Z,15.76
2022-10-08T12:38:42.830Z,15.71
2022-10-08T12:39:42.887Z,15.82
2022-10-08T12:40:42.854Z,15.67
2022-10-08T12:41:42.786Z,15.57
2022-10-08T12:42:42.768Z,15.51
2022-10-08T12:43:42.754Z,15.49
2022-10-08T12:44:42.768Z,15.38
2022-10-08T12:45:42.748Z,15.39
2022-10-08T12:46:44.970Z,15.51
2022-10-08T12:47:43.708Z,15.38
2022-10-08T12:48:42.727Z,15.23
2022-10-08T12:49:42.703Z,15.36
2022-10-08T12:50:42.676Z,15.44
2022-10-08T12:51:42.665Z,15.47
2022-10-08T12:52:42.665Z,15.54
2022-10-08T12:53:42.639Z,15.57
2022-10-08T12:54:42.645Z,15.56
2022-10-08T12:55:42.634Z,15.67